Latest Coastal Weather Observations for Whyalla

IDS60701

Issued at 4:41 pm CST Tuesday 22 August 2017 (issued every 10 minutes, with the page automatically refreshed every 10 minutes)

About coastal observations | Map of coastal stations | Coastal observations for SA | Marine services | Other Formats
Station Details ID: 018120 Name: WHYALLA AERO Lat: -33.05 Lon: 137.52 Height: 9.3 m
Data from the previous 72 hours. | See also: Recent months at Whyalla
Date/Time
CST
Temp
°C
Wind Pressure Rain since
9am
mm
Weather Cloud Vis
km
Sea
Height
m
Swell
Dir  Spd
kts
Gust
kts
hPa Trend Height
m
Period
s
Dir
22/04:30pm 15.1 E 10 13 1021.4 - 0.2 - - 10 - - - -
22/04:00pm 15.3 E 10 13 1021.5 - 0.2 - Partly cloudy 10 - - - -
22/03:30pm 15.4 E 10 13 1021.5 - 0.2 - - 10 - - - -
22/03:00pm 15.4 E 11 13 1021.4 - 0.2 - Mostly clear 10 - - - -
22/02:30pm 15.4 E 10 13 1021.4 - 0.2 - Partly cloudy 10 - - - -
22/02:00pm 15.6 ESE 9 12 1021.3 - 0.2 - Partly cloudy 10 - - - -
22/01:30pm 15.6 E 10 13 1021.7 - 0.2 - Partly cloudy 10 - - - -
22/01:00pm 15.5 ESE 8 11 1022.1 - 0.2 - Partly cloudy 10 - - - -
22/12:30pm 15.2 ESE 8 12 1022.6 - 0.2 - Cloudy 10 - - - -
22/12:00pm 15.1 SE 8 11 1022.8 - 0.2 Recent precip. Cloudy 10 - - - -
22/11:30am 14.8 SSE 7 11 1023.0 - 0.0 - Cloudy 10 - - - -
22/11:00am 14.5 SE 6 10 1023.3 - 0.0 - Cloudy 10 - - - -
22/10:30am 13.9 S 4 6 1023.5 - 0.0 - Cloudy 10 - - - -
22/10:00am 13.4 SW 9 11 1023.9 - 0.0 - Cloudy 10 - - - -
22/09:30am 13.0 WSW 9 13 1023.9 - 0.0 - Cloudy 10 - - - -
22/09:00am 12.8 WSW 6 9 1023.7 - 0.0 - Cloudy 10 - - - -
22/08:30am 12.4 WSW 6 8 1023.6 - 0.0 - Cloudy 10 - - - -
22/08:00am 12.1 SW 7 11 1023.0 - 0.0 - Cloudy 10 - - - -
22/07:30am 11.6 WSW 8 11 1022.5 - 0.0 - Cloudy 10 - - - -
22/07:00am 11.3 WSW 7 9 1022.1 - 0.0 - Cloudy 10 - - - -
22/06:30am 11.1 WSW 6 7 1021.9 - 0.0 - Cloudy 10 - - - -
22/06:00am 11.2 WSW 6 7 1021.6 - 0.0 - Cloudy 10 - - - -
22/05:30am 11.2 WSW 6 8 1021.3 - 0.0 - Cloudy 10 - - - -
22/05:00am 11.2 W 7 8 1021.0 - 0.0 - Cloudy 10 - - - -
22/04:30am 11.0 W 6 9 1020.7 - 0.0 - Cloudy 10 - - - -
22/04:00am 11.2 WSW 5 6 1020.5 - 0.0 - Cloudy 10 - - - -
22/03:30am 11.1 WSW 6 9 1020.2 - 0.0 - Cloudy 10 - - - -
22/03:00am 11.0 SW 7 8 1020.0 - 0.0 - Cloudy 10 - - - -
22/02:30am 11.1 SW 7 11 1020.1 - 0.0 - Cloudy 10 - - - -
22/02:00am 10.3 WSW 5 8 1020.1 - 0.0 - Cloudy 10 - - - -
22/01:30am 10.1 SSE 1 3 1020.2 - 0.0 - Cloudy 10 - - - -
22/01:00am 9.2 SW 5 6 1020.0 - 0.0 - Partly cloudy 10 - - - -
22/12:30am 10.2 SW 4 5 1020.1 - 0.0 - Cloudy 10 - - - -
22/12:00am 10.3 WSW 5 6 1020.2 - 0.0 - Cloudy 10 - - - -
 
Date/Time
CST
Temp
°C
Wind Pressure Rain since
9am
mm
Weather Cloud Vis
km
Sea
Height
m
Swell
Dir  Spd
kts
Gust
kts
hPa Trend Height
m
Period
s
Dir
21/11:30pm 10.1 WSW 5 7 1020.1 - 0.0 - Partly cloudy 10 - - - -
21/11:00pm 10.4 WSW 7 9 1020.0 - 0.0 - Partly cloudy 10 - - - -
21/10:30pm 10.1 WSW 7 9 1019.8 - 0.0 - Cloudy 10 - - - -
21/10:00pm 9.8 WSW 7 10 1019.7 - 0.0 - Partly cloudy 10 - - - -
21/09:30pm 9.8 WSW 7 10 1019.5 - 0.0 - - 10 - - - -
21/09:00pm 9.9 WSW 8 9 1019.2 - 0.0 - - 10 - - - -
21/08:30pm 10.1 W 6 6 1018.9 - 0.0 - - 10 - - - -
21/08:00pm 11.5 WSW 6 9 1018.6 - 0.0 - - 10 - - - -
21/07:30pm 12.1 SW 7 10 1018.1 - 0.0 - - 10 - - - -
21/07:00pm 12.3 SSW 9 11 1017.7 - 0.0 - - 10 - - - -
21/06:30pm 12.5 SSW 9 11 1017.1 - 0.0 - - 10 - - - -
21/06:00pm 12.9 S 12 16 1016.5 - 0.0 - - 10 - - - -
21/05:30pm 13.5 S 13 17 1015.9 - 0.0 - Partly cloudy 10 - - - -
21/05:00pm 13.8 S 15 22 1015.2 - 0.0 - Partly cloudy 10 - - - -
21/04:30pm 14.5 S 15 23 1014.6 - 0.0 - Partly cloudy 10 - - - -
21/04:00pm 15.0 S 16 23 1014.2 - 0.0 - Partly cloudy 10 - - - -
21/03:30pm 15.6 S 15 20 1013.6 - 0.0 - Partly cloudy 10 - - - -
21/03:00pm 16.6 SSW 19 26 1013.2 - 0.0 - Partly cloudy 10 - - - -
21/02:51pm 17.0 SSW 17 27 1013.1 - 0.0 - Partly cloudy 10 - - - -
21/02:30pm 17.5 SSW 20 28 1012.7 - 0.0 - Partly cloudy 10 - - - -
21/02:12pm 17.0 SSW 20 30 1012.5 - 0.0 - Partly cloudy 10 - - - -
21/02:00pm 17.1 SSW 21 27 1012.3 - 0.0 - Partly cloudy 10 - - - -
21/01:30pm 16.6 SW 16 24 1012.0 - 0.0 - Partly cloudy 10 - - - -
21/01:00pm 16.5 WSW 17 25 1011.8 - 0.0 - Partly cloudy 10 - - - -
21/12:34pm 15.2 SW 15 26 1011.6 - 0.0 - Partly cloudy 10 - - - -
21/12:30pm 15.4 SW 14 21 1011.6 - 0.0 - Partly cloudy 10 - - - -
21/12:04pm 16.4 SW 15 25 1011.2 - 0.0 - Partly cloudy 10 - - - -
21/12:00pm 16.5 WSW 13 19 1011.2 - 0.0 - Cloudy 10 - - - -
21/11:30am 14.8 WNW 11 15 1011.1 - 0.0 - Partly cloudy 10 - - - -
21/11:03am 14.4 NW 11 14 1011.0 - 0.0 - Partly cloudy 10 - - - -
21/11:00am 14.3 NW 12 14 1011.0 - 0.0 - Partly cloudy 10 - - - -
21/10:46am 13.8 NW 12 18 1010.9 - 0.0 - Partly cloudy 5 - - - -
21/10:30am 14.0 NW 12 16 1010.8 - 0.0 - Partly cloudy 10 - - - -
21/10:00am 13.6 NW 13 17 1010.6 - 0.0 - Partly cloudy 10 - - - -
21/09:47am 12.9 NNW 10 15 1010.5 - 0.0 - Partly cloudy 10 - - - -
21/09:30am 12.0 NNW 11 17 1010.6 - 0.0 - Cloudy 4 - - - -
21/09:21am 12.1 NNW 12 16 1010.5 - 0.0 - Cloudy 5 - - - -
21/09:00am 12.2 NNW 13 18 1010.2 - 2.6 - Cloudy 10 - - - -
21/08:30am 11.6 NNW 12 15 1009.8 - 2.6 - Partly cloudy 10 - - - -
21/08:00am 10.4 N 8 12 1009.7 - 2.6 - Partly cloudy 10 - - - -
21/07:30am 10.2 NNW 13 17 1009.3 - 2.4 - Partly cloudy 4 - - - -
21/07:28am 10.3 NNW 13 17 1009.3 - 2.4 - Partly cloudy 5 - - - -
21/07:00am 11.1 NNW 14 18 1008.6 - 2.4 - Partly cloudy 10 - - - -
21/06:30am 10.0 NNW 15 19 1008.5 - 2.4 - Partly cloudy 10 - - - -
21/06:00am 9.9 NNW 14 17 1008.3 - 2.4 - Mostly cloudy 10 - - - -
21/05:30am 9.8 NNW 9 14 1008.3 - 2.4 - Partly cloudy 10 - - - -
21/05:00am 9.0 N 9 11 1008.2 - 2.4 - Partly cloudy 10 - - - -
21/04:30am 8.7 N 9 11 1008.3 - 2.4 - Partly cloudy 10 - - - -
21/04:00am 8.8 NNW 11 15 1008.4 - 2.4 - Partly cloudy 10 - - - -
21/03:30am 10.0 N 18 24 1007.6 - 2.4 - Cloudy 10 - - - -
21/03:00am 9.6 N 17 22 1007.9 - 2.4 - Partly cloudy 10 - - - -
21/02:30am 9.5 NNW 12 16 1008.5 - 2.4 - Partly cloudy 10 - - - -
21/02:00am 9.1 NNW 11 16 1009.0 - 2.4 - - 10 - - - -
21/01:30am 9.0 NNW 7 9 1009.3 - 2.4 - Partly cloudy 10 - - - -
21/01:00am 9.5 NNW 6 9 1009.6 - 2.4 - Cloudy 10 - - - -
21/12:30am 9.2 NW 6 7 1010.3 - 2.4 - Partly cloudy 10 - - - -
21/12:00am 10.6 N 9 15 1010.7 - 2.4 - - 10 - - - -
 
Date/Time
CST
Temp
°C
Wind Pressure Rain since
9am
mm
Weather Cloud Vis
km
Sea
Height
m
Swell
Dir  Spd
kts
Gust
kts
hPa Trend Height
m
Period
s
Dir
20/11:30pm 9.0 N 6 9 1011.1 - 2.4 - - 10 - - - -
20/11:00pm 8.6 NNW 8 11 1011.5 - 2.4 - - 10 - - - -
20/10:30pm 8.3 NW 6 8 1012.0 - 2.4 - - 10 - - - -
20/10:00pm 8.6 NNW 7 10 1012.5 - 2.4 - - 10 - - - -
20/09:30pm 9.9 N 9 12 1012.9 - 2.4 - Partly cloudy 10 - - - -
20/09:00pm 9.9 N 10 13 1013.0 - 2.4 - Cloudy 10 - - - -
20/08:30pm 9.8 NNW 8 9 1013.8 - 2.4 - Partly cloudy 10 - - - -
20/08:00pm 9.4 NNW 9 15 1013.6 - 2.4 - Partly cloudy 10 - - - -
20/07:30pm 9.5 NW 6 8 1014.2 - 2.2 - Partly cloudy 10 - - - -
20/07:00pm 9.7 N 8 11 1013.4 - 2.2 - Cloudy 10 - - - -
20/06:30pm 9.9 NNW 7 11 1013.4 - 2.2 - Cloudy 10 - - - -
20/06:00pm 9.9 NW 7 9 1013.2 - 2.2 - Cloudy 10 - - - -
20/05:30pm 10.2 N 10 16 1013.0 - 2.2 - Cloudy 10 - - - -
20/05:00pm 10.2 N 8 13 1012.3 - 2.2 - Cloudy 10 - - - -
20/04:30pm 9.9 NNW 5 7 1012.6 - 2.2 - Cloudy 10 - - - -
20/04:00pm 9.8 NNE 6 9 1012.3 - 2.2 - Cloudy 10 - - - -
20/03:30pm 10.1 NE 9 13 1012.5 - 1.8 - Partly cloudy 10 - - - -
20/03:00pm 10.2 N 13 17 1014.5 - 1.8 - Mostly cloudy 10 - - - -
20/02:30pm 9.6 N 11 14 1015.2 - 1.8 - Partly cloudy 10 - - - -
20/02:00pm 9.4 N 11 15 1015.7 - 1.8 - Partly cloudy 10 - - - -
20/01:30pm 9.5 NNE 11 15 1016.6 - 1.2 - Cloudy 10 - - - -
20/01:00pm 10.2 N 12 16 1018.1 - 0.6 - Cloudy 10 - - - -
20/12:30pm 10.5 NNE 9 11 1018.1 - 0.6 - Cloudy 10 - - - -
20/12:00pm 11.4 NNE 10 16 1019.4 - 0.0 - Cloudy 10 - - - -
20/11:30am 11.1 N 10 12 1020.7 - 0.0 - Partly cloudy 10 - - - -
20/11:00am 12.8 NNW 11 15 1021.4 - 0.0 - Cloudy 10 - - - -
20/10:30am 13.2 N 10 14 1022.0 - 0.0 - Partly cloudy 10 - - - -
20/10:00am 13.1 N 13 18 1022.1 - 0.0 - - 10 - - - -
20/09:30am 13.2 NNE 13 17 1021.4 - 0.0 - - 10 - - - -
20/09:00am 12.4 NE 9 14 1021.3 - 0.0 - Partly cloudy 10 - - - -
20/08:30am 8.7 NNW 1 5 1021.5 - 0.0 - - 10 - - - -
20/08:00am 4.4 CALM 0 0 1021.7 - 0.0 - - 10 - - - -
20/07:30am 1.9 W 4 5 1022.2 - 0.0 - - 10 - - - -
20/07:00am 0.4 W 5 6 1022.0 - 0.0 - - 10 - - - -
20/06:30am 0.4 NE 4 5 1021.8 - 0.0 - - 10 - - - -
20/06:00am 0.7 CALM 0 0 1021.9 - 0.0 - - 10 - - - -
20/05:30am 1.1 WNW 3 4 1022.0 - 0.0 - - 10 - - - -
20/05:00am 1.7 NNW 4 5 1022.0 - 0.0 - - 10 - - - -
20/04:30am 1.3 NNW 4 5 1022.3 - 0.0 - - 10 - - - -
20/04:00am 1.3 N 4 5 1022.5 - 0.0 - - 10 - - - -
20/03:30am 2.1 CALM 0 1 1022.8 - 0.0 - - 10 - - - -
20/03:00am 3.3 NNW 3 4 1023.3 - 0.0 - Mostly cloudy 10 - - - -
20/02:30am 3.2 NNW 3 4 1023.8 - 0.0 - - 10 - - - -
20/02:00am 2.6 NW 6 7 1024.3 - 0.0 - - 10 - - - -
20/01:30am 3.1 NW 5 6 1024.4 - 0.0 - - 10 - - - -
20/01:00am 3.1 NW 5 5 1024.8 - 0.0 - - 10 - - - -
20/12:30am 3.1 SW 4 5 1025.0 - 0.0 - - 10 - - - -
20/12:00am 3.8 CALM 0 3 1025.3 - 0.0 - - 10 - - - -
 
Date/Time
CST
Temp
°C
Wind Pressure Rain since
9am
mm
Weather Cloud Vis
km
Sea
Height
m
Swell
Dir  Spd
kts
Gust
kts
hPa Trend Height
m
Period
s
Dir
19/11:30pm 6.9 CALM 0 0 1025.5 - 0.0 - - 10 - - - -
19/11:00pm 9.4 SE 4 6 1026.2 - 0.0 - - 10 - - - -
19/10:30pm 9.4 ESE 6 9 1026.4 - 0.0 - - 10 - - - -
19/10:00pm 5.3 CALM 0 0 1026.6 - 0.0 - - 10 - - - -
19/09:30pm 5.7 CALM 0 0 1026.7 - 0.0 - - 10 - - - -
19/09:00pm 8.1 S 3 5 1026.9 - 0.0 - - 10 - - - -
19/08:30pm 10.4 SSE 5 7 1027.0 - 0.0 - - 10 - - - -
19/08:00pm 10.8 SSE 7 9 1027.0 - 0.0 - - 10 - - - -
19/07:30pm 10.7 SSE 7 8 1026.9 - 0.0 - - 10 - - - -
19/07:00pm 10.7 SSE 6 8 1026.7 - 0.0 - - 10 - - - -
19/06:30pm 10.8 SSE 6 8 1026.7 - 0.0 - - 10 - - - -
19/06:00pm 11.5 S 7 9 1026.8 - 0.0 - - 10 - - - -
19/05:30pm 12.6 SSE 7 9 1026.9 - 0.0 - - 10 - - - -
19/05:00pm 13.4 S 7 9 1026.8 - 0.0 - - 10 - - - -

Other Formats:

Comma delimited format used in spreadsheet applications
http://www.bom.gov.au/fwo/IDS60701/IDS60701.95664.axf

JavaScript Object Notation format (JSON) in row-major order
http://www.bom.gov.au/fwo/IDS60701/IDS60701.95664.json